Portugalete, Spain

03:45 PM CET 2019 urtarrila ren 22 an (GMT +0100)
Neguri | | Change Station

Elev 141 ft 43.34 °N, 3.00 °W | Updated 13 seconds ago

Euria
Euria
47.3 °F
Feels Like 47 °F
N
0
Haizea Aldagarria Haizea from EHE
Gusts 0.0 mph

Gaur
High -- | Low -- °F
--% Chance of Precip.
Yesterday
High -- | Low -- °F
Precip. -- in
Presioa 29.95 in
Ikusgaitasuna 3.1 Miliak
Clouds Few 2000 ft
Few 2400 ft
Goraki estalia 3900 ft
Izozki haizeak 47 °F
Ihintzaren maila 44 °F
Afoinua 88%
Rainfall 0.13 in
Snow Depth Not available.
8:37 AM 6:10 PM
Full, 97% visible
SPECI LEXJ 221440Z 28015G25KT 250V310 5000 -RA FEW020 FEW024CB BKN039 09/06 Q1014
Presioa 29.95 in
Ikusgaitasuna 3.1 Miliak
Clouds Few 2000 ft
Few 2400 ft
Goraki estalia 3900 ft
Izozki haizeak 47 °F
Ihintzaren maila 44 °F
Afoinua 88%
Rainfall 0.13 in
Snow Depth Not available.
8:37 AM 6:10 PM
Full, 97% visible
SPECI LEXJ 221440Z 28015G25KT 250V310 5000 -RA FEW020 FEW024CB BKN039 09/06 Q1014

Get Severe Weather Alerts

Thanks for signing up!

Be on the lookout for a verification email in your inbox.

You'll start receiving the daily forecast at 6 AM.

×

10-Day Weather Forecast

×

Almanac

Astronomy

Jan. 22, 2019 Rise Set
Actual Time
Civil Twilight
Nautical Twilight
Astronomical Twilight
Moon
Length Of Visible Light
Length of Day
Tomorrow will be .
, % of the Moon is Illuminated

Today's Extremes

Country Highs Country Lows

Community

WunderPhotos

Category 6

Welcome to Category 6. This is the collective home for Weather Underground's featured writeups by Dr. Jeff Masters (right), Bob Henson (left), Chris Burt, and other regular contributors.

Nearby

Air Quality

  Air Quality AQ Index Pollutant
Not available.

Snow Depth

Station Depth Elevation

Earthquake Activity

City Distance Mag. Time & Date
Minimum magnitude displayed is 2.5.

Coastal Water Temperatures

Lekua Tenperatura

Stations

Nearby Weather Stations

Station Location Temp Izozki haizeak Ihintzaren maila Afoinua Haizea Precip. Elev Eguneratuta Type